createdAt,value
2023-01-09T00:02:33.109Z,5.21
2023-01-09T00:05:20.494Z,5.13
2023-01-09T00:08:07.446Z,4.92
2023-01-09T00:10:53.843Z,4.99
2023-01-09T00:13:40.615Z,4.91
2023-01-09T00:16:28.902Z,4.91
2023-01-09T00:19:15.698Z,4.86
2023-01-09T00:22:02.106Z,4.97
2023-01-09T00:24:49.590Z,4.92
2023-01-09T00:27:36.533Z,4.67
2023-01-09T00:30:23.596Z,4.61
2023-01-09T00:33:13.233Z,4.49
2023-01-09T00:36:00.209Z,4.40
2023-01-09T00:38:46.623Z,4.28
2023-01-09T00:41:45.921Z,4.23
2023-01-09T00:44:36.881Z,4.23
2023-01-09T00:47:26.493Z,4.27
2023-01-09T00:50:18.069Z,4.23
2023-01-09T00:53:13.065Z,4.19
2023-01-09T00:56:05.260Z,4.33
2023-01-09T00:58:53.407Z,4.21
2023-01-09T01:01:40.059Z,4.20
2023-01-09T01:04:44.147Z,4.24
2023-01-09T01:07:41.702Z,4.26
2023-01-09T01:10:28.758Z,4.29
2023-01-09T01:13:16.198Z,4.12
2023-01-09T01:16:05.248Z,4.03
2023-01-09T01:18:52.386Z,4.01
2023-01-09T01:21:39.375Z,3.93
2023-01-09T01:24:27.656Z,4.00
2023-01-09T01:27:15.559Z,4.04
2023-01-09T01:30:02.254Z,3.92
2023-01-09T01:32:49.139Z,3.97
2023-01-09T01:35:37.952Z,3.84
2023-01-09T01:38:24.569Z,3.86
2023-01-09T01:41:12.686Z,3.79
2023-01-09T01:44:01.654Z,3.83
2023-01-09T01:46:48.204Z,3.67
2023-01-09T01:49:35.035Z,3.61
2023-01-09T01:52:22.877Z,3.49
2023-01-09T01:55:11.184Z,3.27
2023-01-09T01:58:05.380Z,3.30
2023-01-09T02:00:51.915Z,3.18
2023-01-09T02:03:40.903Z,3.17
2023-01-09T02:06:28.202Z,3.08
2023-01-09T02:09:19.347Z,3.02
2023-01-09T02:12:17.354Z,3.11
2023-01-09T02:15:10.242Z,3.07
2023-01-09T02:18:15.273Z,3.08
2023-01-09T02:21:11.322Z,3.08
2023-01-09T02:24:12.613Z,3.13
2023-01-09T02:27:46.759Z,3.16
2023-01-09T02:30:41.721Z,3.11
2023-01-09T02:33:40.726Z,3.04
2023-01-09T02:36:32.969Z,3.17
2023-01-09T02:39:27.579Z,3.10
2023-01-09T02:42:18.834Z,2.61
2023-01-09T02:45:06.424Z,2.96
2023-01-09T02:47:54.364Z,3.02
2023-01-09T02:50:52.357Z,2.94
2023-01-09T02:53:58.435Z,2.90
2023-01-09T02:57:07.185Z,2.93
2023-01-09T03:00:09.088Z,2.94
2023-01-09T03:03:03.848Z,2.97
2023-01-09T03:05:56.787Z,2.83
2023-01-09T03:08:49.000Z,2.92
2023-01-09T03:11:41.507Z,2.97
2023-01-09T03:14:31.487Z,2.94
2023-01-09T03:17:27.403Z,3.15
2023-01-09T03:20:18.886Z,3.28
2023-01-09T03:23:08.151Z,3.21
2023-01-09T03:25:54.626Z,3.49
2023-01-09T03:28:41.324Z,3.55
2023-01-09T03:31:28.317Z,3.43
2023-01-09T03:34:14.754Z,3.66
2023-01-09T03:37:04.539Z,3.77
2023-01-09T03:39:51.420Z,3.80
2023-01-09T03:42:38.234Z,3.63
2023-01-09T03:45:24.962Z,3.79
2023-01-09T03:48:11.793Z,3.74
2023-01-09T03:50:58.723Z,3.76
2023-01-09T03:53:46.838Z,3.73
2023-01-09T03:56:33.771Z,3.61
2023-01-09T03:59:20.639Z,3.58
2023-01-09T04:02:07.602Z,3.53
2023-01-09T04:04:54.349Z,3.62
2023-01-09T04:07:41.336Z,3.65
2023-01-09T04:10:29.706Z,3.45
2023-01-09T04:13:16.333Z,3.72
2023-01-09T04:16:03.016Z,3.72
2023-01-09T04:18:49.666Z,3.78
2023-01-09T04:21:36.566Z,3.77
2023-01-09T04:24:24.279Z,3.86
2023-01-09T04:27:13.256Z,3.90
2023-01-09T04:29:59.700Z,3.88
2023-01-09T04:32:46.853Z,3.92
2023-01-09T04:35:33.697Z,3.88
2023-01-09T04:38:20.471Z,3.87
2023-01-09T04:41:07.343Z,3.89
2023-01-09T04:43:55.510Z,3.99
2023-01-09T04:46:42.453Z,3.94
2023-01-09T04:49:29.661Z,4.04
2023-01-09T04:52:16.315Z,4.02
2023-01-09T04:55:05.738Z,4.21
2023-01-09T04:57:52.506Z,4.15
2023-01-09T05:00:41.328Z,4.12
2023-01-09T05:03:28.430Z,4.13
2023-01-09T05:06:15.361Z,4.17
2023-01-09T05:09:03.044Z,4.20
2023-01-09T05:11:50.679Z,4.18
2023-01-09T05:14:37.335Z,4.25
2023-01-09T05:17:25.460Z,4.18
2023-01-09T05:20:12.324Z,4.27
2023-01-09T05:22:59.108Z,4.22
2023-01-09T05:25:45.885Z,4.17
2023-01-09T05:28:32.470Z,4.39
2023-01-09T05:31:19.266Z,4.33
2023-01-09T05:34:07.329Z,4.48
2023-01-09T05:36:54.056Z,4.47
2023-01-09T05:39:41.059Z,4.48
2023-01-09T05:42:27.935Z,4.75
2023-01-09T05:45:14.773Z,4.82
2023-01-09T05:48:01.582Z,4.86
2023-01-09T05:50:49.811Z,5.05
2023-01-09T05:53:36.605Z,5.08
2023-01-09T05:56:23.218Z,5.22
2023-01-09T05:59:10.176Z,5.16
2023-01-09T06:01:56.917Z,5.30
2023-01-09T06:04:43.981Z,5.25
2023-01-09T06:07:31.979Z,5.39
2023-01-09T06:10:18.979Z,5.29
2023-01-09T06:13:05.684Z,5.30
2023-01-09T06:15:53.972Z,5.41
2023-01-09T06:18:40.989Z,5.36
2023-01-09T06:21:29.603Z,5.39
2023-01-09T06:24:17.883Z,5.35
2023-01-09T06:27:06.713Z,5.37
2023-01-09T06:29:53.594Z,5.33
2023-01-09T06:32:41.369Z,5.34
2023-01-09T06:35:28.312Z,5.32
2023-01-09T06:38:15.065Z,5.27
2023-01-09T06:41:03.301Z,5.40
2023-01-09T06:43:49.959Z,5.31
2023-01-09T06:46:36.768Z,5.21
2023-01-09T06:49:24.965Z,5.17
2023-01-09T06:52:11.346Z,5.27
2023-01-09T06:54:58.168Z,5.31
2023-01-09T06:57:46.765Z,5.23
2023-01-09T07:00:33.286Z,5.20
2023-01-09T07:03:22.224Z,5.16
2023-01-09T07:06:08.975Z,5.14
2023-01-09T07:08:55.543Z,5.17
2023-01-09T07:11:42.662Z,5.19
2023-01-09T07:14:30.504Z,5.25
2023-01-09T07:17:17.215Z,5.27
2023-01-09T07:20:04.698Z,5.33
2023-01-09T07:22:51.228Z,5.32
2023-01-09T07:25:38.164Z,5.27
2023-01-09T07:28:25.008Z,5.31
2023-01-09T07:31:13.138Z,5.28
2023-01-09T07:33:59.895Z,5.26
2023-01-09T07:36:48.836Z,5.20
2023-01-09T07:39:35.532Z,5.28
2023-01-09T07:42:22.385Z,5.33
2023-01-09T07:45:10.123Z,5.29
2023-01-09T07:47:58.219Z,5.49
2023-01-09T07:50:44.945Z,5.45
2023-01-09T07:53:31.760Z,5.44
2023-01-09T07:56:18.541Z,5.37
2023-01-09T07:59:05.427Z,5.36
2023-01-09T08:01:52.401Z,5.44
2023-01-09T08:04:40.486Z,5.47
2023-01-09T08:07:26.953Z,5.40
2023-01-09T08:10:14.039Z,5.48
2023-01-09T08:13:00.844Z,5.52
2023-01-09T08:15:47.597Z,5.71
2023-01-09T08:18:34.322Z,5.65
2023-01-09T08:21:22.581Z,5.77
2023-01-09T08:24:11.054Z,5.77
2023-01-09T08:26:57.458Z,5.82
2023-01-09T08:29:44.265Z,5.81
2023-01-09T08:32:31.111Z,5.81
2023-01-09T08:35:18.034Z,5.91
2023-01-09T08:38:06.212Z,5.87
2023-01-09T08:40:52.894Z,5.93
2023-01-09T08:43:57.175Z,5.91
2023-01-09T08:47:01.768Z,5.92
2023-01-09T08:49:48.477Z,5.85
2023-01-09T08:52:35.278Z,5.98
2023-01-09T08:55:23.387Z,6.06
2023-01-09T08:58:10.272Z,6.07
2023-01-09T09:00:58.979Z,6.14
2023-01-09T09:03:45.863Z,6.09
2023-01-09T09:06:32.644Z,6.08
2023-01-09T09:09:19.535Z,6.16
2023-01-09T09:12:08.330Z,6.07
2023-01-09T09:15:12.625Z,6.08
2023-01-09T09:18:01.829Z,5.98
2023-01-09T09:20:49.491Z,6.15
2023-01-09T09:23:36.332Z,6.20
2023-01-09T09:26:23.027Z,6.21
2023-01-09T09:29:11.924Z,6.20
2023-01-09T09:32:00.747Z,6.14
2023-01-09T09:34:47.413Z,6.22
2023-01-09T09:37:34.266Z,6.18
2023-01-09T09:40:27.755Z,6.15
2023-01-09T09:43:49.136Z,6.29
2023-01-09T09:46:44.684Z,6.18
2023-01-09T09:49:41.323Z,6.21
2023-01-09T09:52:36.438Z,6.29
2023-01-09T09:55:30.455Z,6.23
2023-01-09T09:58:26.134Z,6.39
2023-01-09T10:01:20.240Z,6.33
2023-01-09T10:04:14.229Z,6.31
2023-01-09T10:07:06.244Z,6.40
2023-01-09T10:09:55.403Z,6.43
2023-01-09T10:12:52.302Z,6.50
2023-01-09T10:15:46.877Z,6.35
2023-01-09T10:18:43.977Z,6.37
2023-01-09T10:21:41.965Z,6.43
2023-01-09T10:24:42.323Z,6.49
2023-01-09T10:27:41.625Z,6.42
2023-01-09T10:30:35.175Z,6.47
2023-01-09T10:33:35.696Z,6.65
2023-01-09T10:36:45.561Z,6.68
2023-01-09T10:39:45.105Z,6.85
2023-01-09T10:42:38.348Z,6.97
2023-01-09T10:45:30.421Z,6.95
2023-01-09T10:48:22.770Z,7.13
2023-01-09T10:51:19.810Z,7.11
2023-01-09T10:54:13.855Z,7.12
2023-01-09T10:57:11.817Z,7.18
2023-01-09T10:59:58.598Z,7.13
2023-01-09T11:02:45.716Z,7.20
2023-01-09T11:05:32.924Z,7.12
2023-01-09T11:08:26.708Z,7.13
2023-01-09T11:11:13.988Z,7.28
2023-01-09T11:14:08.473Z,7.28
2023-01-09T11:16:57.560Z,7.30
2023-01-09T11:20:02.211Z,7.29
2023-01-09T11:22:51.210Z,7.47
2023-01-09T11:25:37.686Z,7.47
2023-01-09T11:28:25.063Z,7.51
2023-01-09T11:31:25.973Z,7.53
2023-01-09T11:34:20.636Z,7.24
2023-01-09T11:37:10.399Z,7.45
2023-01-09T11:39:59.164Z,7.45
2023-01-09T11:43:15.662Z,7.55
2023-01-09T11:46:05.764Z,7.58
2023-01-09T11:48:57.885Z,7.56
2023-01-09T11:51:45.563Z,7.46
2023-01-09T11:54:35.543Z,7.53
2023-01-09T11:57:23.846Z,7.59
2023-01-09T12:00:25.788Z,7.49
2023-01-09T12:03:22.894Z,7.45
2023-01-09T12:06:20.589Z,7.49
2023-01-09T12:09:09.075Z,7.40
2023-01-09T12:12:01.574Z,7.48
2023-01-09T12:15:01.355Z,7.39
2023-01-09T12:18:09.137Z,7.48
2023-01-09T12:21:08.829Z,7.47
2023-01-09T12:24:07.206Z,7.38
2023-01-09T12:27:09.246Z,7.44
2023-01-09T12:30:11.731Z,7.47
2023-01-09T12:33:13.618Z,7.43
2023-01-09T12:36:12.439Z,7.52
2023-01-09T12:39:08.939Z,7.57
2023-01-09T12:42:28.319Z,7.72
2023-01-09T12:45:34.144Z,7.63
2023-01-09T12:48:36.460Z,7.67
2023-01-09T12:51:32.457Z,7.57
2023-01-09T12:54:28.179Z,7.62
2023-01-09T12:57:20.711Z,7.56
2023-01-09T13:00:15.279Z,7.53
2023-01-09T13:03:12.588Z,7.45
2023-01-09T13:05:59.980Z,7.43
2023-01-09T13:08:52.396Z,7.49
2023-01-09T13:11:45.833Z,7.35
2023-01-09T13:14:47.078Z,7.28
2023-01-09T13:17:40.028Z,7.25
2023-01-09T13:20:33.994Z,7.24
2023-01-09T13:23:27.611Z,7.29
2023-01-09T13:26:18.192Z,7.40
2023-01-09T13:29:16.425Z,7.39
2023-01-09T13:32:27.153Z,7.30
2023-01-09T13:35:16.097Z,7.39
2023-01-09T13:38:02.943Z,7.47
2023-01-09T13:41:23.095Z,7.07
2023-01-09T13:44:25.132Z,7.26
2023-01-09T13:47:21.298Z,6.90
2023-01-09T13:50:31.949Z,7.07
2023-01-09T13:53:43.881Z,6.99
2023-01-09T13:56:30.469Z,6.98
2023-01-09T13:59:29.828Z,6.88
2023-01-09T14:02:50.181Z,6.76
2023-01-09T14:06:17.650Z,6.70
2023-01-09T14:09:18.096Z,6.79
2023-01-09T14:12:07.398Z,6.69
2023-01-09T14:14:58.734Z,6.75
2023-01-09T14:17:45.268Z,6.83
2023-01-09T14:20:36.778Z,6.87
2023-01-09T14:23:46.107Z,6.89
2023-01-09T14:26:45.239Z,6.79
2023-01-09T14:29:40.294Z,6.78
2023-01-09T14:32:44.486Z,6.66
2023-01-09T14:35:43.697Z,6.66
2023-01-09T14:38:33.228Z,6.48
2023-01-09T14:41:44.439Z,6.69
2023-01-09T14:44:34.073Z,6.62
2023-01-09T14:47:29.535Z,6.54
2023-01-09T14:50:23.300Z,6.47
2023-01-09T14:53:14.399Z,6.55
2023-01-09T14:56:06.057Z,6.48
2023-01-09T14:59:05.077Z,6.35
2023-01-09T15:01:55.482Z,6.26
2023-01-09T15:04:43.565Z,6.30
2023-01-09T15:07:34.914Z,6.24
2023-01-09T15:10:24.423Z,6.21
2023-01-09T15:13:17.031Z,6.14
2023-01-09T15:16:07.110Z,6.07
2023-01-09T15:18:57.599Z,5.95
2023-01-09T15:21:57.955Z,5.73
2023-01-09T15:24:46.100Z,5.62
2023-01-09T15:27:32.637Z,5.56
2023-01-09T15:30:23.903Z,5.54
2023-01-09T15:33:13.388Z,5.55
2023-01-09T15:36:03.193Z,5.59
2023-01-09T15:38:51.741Z,5.65
2023-01-09T15:41:57.292Z,5.69
2023-01-09T15:44:46.910Z,5.65
2023-01-09T15:47:33.916Z,5.64
2023-01-09T15:50:27.738Z,5.70
2023-01-09T15:53:18.307Z,5.76
2023-01-09T15:56:17.427Z,5.48
2023-01-09T15:59:24.694Z,5.71
2023-01-09T16:02:33.345Z,5.76
2023-01-09T16:05:21.184Z,5.87
2023-01-09T16:08:20.751Z,5.85
2023-01-09T16:11:10.724Z,5.94
2023-01-09T16:14:02.506Z,5.88
2023-01-09T16:16:52.284Z,5.81
2023-01-09T16:19:48.038Z,5.87
2023-01-09T16:22:36.035Z,6.03
2023-01-09T16:25:29.756Z,6.06
2023-01-09T16:28:21.248Z,5.98
2023-01-09T16:31:20.622Z,5.97
2023-01-09T16:34:13.469Z,5.89
2023-01-09T16:36:59.954Z,5.94
2023-01-09T16:40:22.973Z,6.07
2023-01-09T16:43:11.637Z,6.19
2023-01-09T16:45:58.251Z,6.02
2023-01-09T16:48:45.013Z,5.95
2023-01-09T16:51:33.091Z,5.90
2023-01-09T16:54:20.339Z,5.81
2023-01-09T16:57:07.137Z,5.77
2023-01-09T16:59:53.695Z,5.74
2023-01-09T17:02:40.593Z,5.73
2023-01-09T17:05:27.121Z,5.68
2023-01-09T17:08:22.535Z,5.62
2023-01-09T17:11:19.696Z,5.61
2023-01-09T17:14:07.525Z,5.46
2023-01-09T17:16:54.065Z,5.37
2023-01-09T17:19:41.274Z,5.29
2023-01-09T17:22:27.977Z,5.20
2023-01-09T17:25:34.539Z,5.13
2023-01-09T17:28:34.800Z,5.05
2023-01-09T17:31:23.233Z,4.89
2023-01-09T17:34:11.385Z,4.79
2023-01-09T17:36:58.489Z,4.66
2023-01-09T17:39:46.194Z,4.65
2023-01-09T17:42:35.927Z,4.58
2023-01-09T17:45:23.785Z,4.60
2023-01-09T17:48:17.852Z,4.60
2023-01-09T17:51:04.930Z,4.50
2023-01-09T17:53:51.969Z,4.47
2023-01-09T17:56:40.724Z,4.46
2023-01-09T17:59:30.326Z,4.64
2023-01-09T18:02:18.698Z,4.37
2023-01-09T18:05:05.647Z,4.18
2023-01-09T18:07:52.740Z,4.15
2023-01-09T18:10:40.517Z,4.26
2023-01-09T18:13:27.427Z,4.21
2023-01-09T18:16:17.480Z,4.04
2023-01-09T18:19:04.824Z,4.05
2023-01-09T18:21:51.655Z,3.99
2023-01-09T18:24:38.419Z,3.93
2023-01-09T18:27:25.526Z,3.92
2023-01-09T18:30:13.227Z,3.89
2023-01-09T18:33:01.440Z,3.87
2023-01-09T18:35:48.128Z,3.93
2023-01-09T18:38:35.671Z,3.90
2023-01-09T18:41:23.352Z,3.97
2023-01-09T18:44:11.108Z,4.02
2023-01-09T18:47:00.379Z,4.02
2023-01-09T18:49:55.111Z,4.04
2023-01-09T18:52:50.945Z,3.97
2023-01-09T18:55:42.112Z,3.85
2023-01-09T18:58:31.948Z,3.97
2023-01-09T19:01:22.195Z,4.01
2023-01-09T19:04:11.283Z,4.14
2023-01-09T19:07:01.677Z,4.08
2023-01-09T19:09:49.940Z,4.09
2023-01-09T19:12:37.850Z,4.13
2023-01-09T19:15:25.836Z,4.04
2023-01-09T19:18:14.552Z,4.05
2023-01-09T19:21:03.185Z,4.16
2023-01-09T19:23:52.281Z,4.15
2023-01-09T19:26:39.754Z,4.16
2023-01-09T19:29:28.137Z,4.36
2023-01-09T19:32:15.602Z,4.38
2023-01-09T19:35:02.639Z,4.50
2023-01-09T19:37:50.663Z,4.54
2023-01-09T19:40:39.642Z,4.61
2023-01-09T19:43:30.512Z,4.64
2023-01-09T19:46:19.994Z,4.73
2023-01-09T19:49:09.011Z,4.81
2023-01-09T19:51:56.551Z,4.98
2023-01-09T19:54:43.320Z,5.03
2023-01-09T19:57:32.215Z,5.11
2023-01-09T20:00:19.242Z,5.10
2023-01-09T20:03:05.906Z,5.06
2023-01-09T20:05:52.473Z,5.06
2023-01-09T20:08:40.471Z,5.16
2023-01-09T20:11:30.370Z,5.14
2023-01-09T20:14:20.240Z,5.28
2023-01-09T20:17:06.913Z,5.37
2023-01-09T20:19:53.599Z,5.44
2023-01-09T20:22:40.381Z,5.38
2023-01-09T20:25:27.623Z,5.30
2023-01-09T20:28:14.773Z,5.20
2023-01-09T20:31:05.799Z,5.16
2023-01-09T20:33:52.447Z,5.06
2023-01-09T20:36:40.032Z,5.04
2023-01-09T20:39:26.743Z,4.89
2023-01-09T20:42:13.443Z,4.88
2023-01-09T20:45:01.255Z,4.88
2023-01-09T20:47:50.522Z,4.79
2023-01-09T20:50:37.095Z,4.69
2023-01-09T20:53:23.975Z,4.72
2023-01-09T20:56:10.661Z,4.87
2023-01-09T20:58:57.819Z,4.76
2023-01-09T21:01:44.837Z,4.75
2023-01-09T21:04:32.700Z,4.67
2023-01-09T21:07:19.444Z,4.77
2023-01-09T21:10:07.515Z,4.77
2023-01-09T21:12:54.417Z,4.80
2023-01-09T21:15:41.876Z,4.77
2023-01-09T21:18:29.237Z,4.71
2023-01-09T21:21:19.432Z,4.87
2023-01-09T21:24:08.456Z,4.81
2023-01-09T21:26:54.904Z,4.73
2023-01-09T21:29:41.922Z,4.71
2023-01-09T21:32:30.009Z,4.65
2023-01-09T21:35:16.825Z,4.80
2023-01-09T21:38:04.777Z,4.86
2023-01-09T21:40:52.052Z,4.88
2023-01-09T21:43:56.404Z,4.82
2023-01-09T21:46:57.680Z,4.87
2023-01-09T21:49:45.483Z,4.84
2023-01-09T21:52:32.465Z,5.01
2023-01-09T21:55:20.528Z,4.95
2023-01-09T21:58:07.181Z,5.03
2023-01-09T22:01:00.485Z,5.13
2023-01-09T22:03:46.799Z,5.12
2023-01-09T22:06:33.453Z,5.25
2023-01-09T22:09:20.347Z,5.30
2023-01-09T22:12:08.545Z,5.38
2023-01-09T22:14:55.440Z,5.47
2023-01-09T22:17:42.095Z,5.51
2023-01-09T22:20:28.840Z,5.59
2023-01-09T22:23:15.964Z,5.63
2023-01-09T22:26:08.279Z,5.55
2023-01-09T22:29:11.310Z,5.49
2023-01-09T22:31:58.984Z,5.63
2023-01-09T22:34:45.680Z,5.59
2023-01-09T22:37:32.490Z,5.74
2023-01-09T22:40:19.348Z,5.70
2023-01-09T22:43:06.368Z,5.82
2023-01-09T22:45:54.211Z,5.72
2023-01-09T22:48:42.133Z,5.86
2023-01-09T22:51:28.748Z,5.86
2023-01-09T22:54:15.354Z,5.87
2023-01-09T22:57:01.872Z,5.86
2023-01-09T22:59:48.752Z,5.81
2023-01-09T23:02:37.278Z,5.99
2023-01-09T23:05:23.847Z,5.84
2023-01-09T23:08:10.604Z,5.82
2023-01-09T23:10:57.784Z,6.08
2023-01-09T23:13:44.581Z,6.13
2023-01-09T23:16:31.344Z,6.30
2023-01-09T23:19:19.648Z,6.23
2023-01-09T23:22:06.450Z,6.25
2023-01-09T23:24:53.978Z,6.27
2023-01-09T23:27:40.733Z,6.24
2023-01-09T23:30:27.654Z,6.33
2023-01-09T23:33:16.632Z,6.36
2023-01-09T23:36:04.935Z,6.23
2023-01-09T23:38:51.742Z,6.36
2023-01-09T23:42:05.014Z,6.39
2023-01-09T23:44:51.384Z,6.40
2023-01-09T23:47:38.120Z,6.41
2023-01-09T23:50:24.950Z,6.38
2023-01-09T23:53:12.961Z,6.36
2023-01-09T23:56:01.308Z,6.31
2023-01-09T23:58:48.176Z,6.35
